Time;durP1;ratioP1;P1;durP2;ratioP2;P2;SDS_P1;SDS_P2;PMS_P1;PMS_P2;Temp;Humidity;BMP_temperature;BMP_pressure;BME280_temperature;BME280_humidity;BME280_pressure;Samples;Min_cycle;Max_cycle;Signal;HPM_P1;HPM_P2
2022/06/10 00:00:51;;;;;;;6.07;3.40;;;15.90;99.90;;;;;;4981953;28;20019;-81
2022/06/10 00:03:18;;;;;;;7.22;3.90;;;15.80;99.90;;;;;;4991625;28;20033;-79
2022/06/10 00:05:48;;;;;;;6.95;3.75;;;15.90;99.90;;;;;;4981219;28;20067;-82
2022/06/10 00:08:19;;;;;;;6.63;3.63;;;15.90;99.90;;;;;;4978897;28;20035;-80
2022/06/10 00:10:45;;;;;;;5.18;3.80;;;16.00;99.90;;;;;;4953783;29;20027;-81
2022/06/10 00:13:13;;;;;;;4.90;3.42;;;16.00;99.90;;;;;;4952796;29;20035;-79
2022/06/10 00:15:39;;;;;;;4.93;4.15;;;16.00;99.90;;;;;;4967141;28;20066;-79
2022/06/10 00:18:05;;;;;;;6.50;3.60;;;16.00;99.90;;;;;;4978853;28;20038;-82
2022/06/10 00:20:32;;;;;;;6.00;4.10;;;15.90;99.90;;;;;;4952355;28;20028;-80
2022/06/10 00:22:59;;;;;;;6.55;4.03;;;15.90;99.90;;;;;;4947600;29;20028;-82
2022/06/10 00:25:25;;;;;;;7.03;4.25;;;16.00;99.90;;;;;;4963467;28;20031;-81
2022/06/10 00:27:51;;;;;;;9.82;4.57;;;15.90;99.90;;;;;;4975324;28;20054;-79
2022/06/10 00:30:19;;;;;;;7.22;4.10;;;15.90;99.90;;;;;;4950747;29;20038;-82
2022/06/10 00:32:45;;;;;;;7.95;4.45;;;15.90;99.90;;;;;;4954693;29;20039;-81
2022/06/10 00:35:12;;;;;;;11.13;4.40;;;15.90;99.90;;;;;;4965758;28;20039;-81
2022/06/10 00:37:39;;;;;;;5.50;4.13;;;15.90;99.90;;;;;;4985335;28;20061;-80
2022/06/10 00:40:06;;;;;;;9.95;4.40;;;15.90;99.90;;;;;;4966610;28;20034;-82
2022/06/10 00:42:35;;;;;;;7.75;4.88;;;15.90;99.90;;;;;;4952057;29;20024;-80
2022/06/10 00:45:02;;;;;;;6.60;4.90;;;15.80;99.90;;;;;;4959912;28;20031;-81
2022/06/10 00:47:36;;;;;;;8.95;5.00;;;15.70;99.90;;;;;;4973595;28;20031;-81
2022/06/10 00:50:17;;;;;;;7.60;5.50;;;15.60;99.90;;;;;;4970189;29;20035;-80
2022/06/10 00:52:49;;;;;;;9.80;5.90;;;15.50;99.90;;;;;;4979366;28;20035;-82
2022/06/10 00:55:15;;;;;;;8.38;5.38;;;15.40;99.90;;;;;;4979442;28;20055;-80
2022/06/10 00:57:45;;;;;;;9.50;5.68;;;15.40;99.90;;;;;;4984783;28;20399;-79
2022/06/10 01:00:15;;;;;;;8.82;5.28;;;15.30;99.90;;;;;;4965343;28;20039;-83
2022/06/10 01:02:42;;;;;;;10.43;5.50;;;15.30;99.90;;;;;;4954829;29;20060;-80
2022/06/10 01:05:15;;;;;;;9.50;6.00;;;15.20;99.90;;;;;;4960032;29;20031;-80
2022/06/10 01:07:49;;;;;;;14.80;6.53;;;15.20;99.90;;;;;;4982157;28;20034;-78
2022/06/10 01:10:17;;;;;;;11.00;6.15;;;15.10;99.90;;;;;;4977556;28;20086;-80
2022/06/10 01:13:08;;;;;;;11.13;6.63;;;15.10;99.90;;;;;;4954639;29;20038;-82
2022/06/10 01:15:48;;;;;;;11.55;6.78;;;15.10;99.90;;;;;;4957073;29;20063;-80
2022/06/10 01:18:33;;;;;;;9.02;6.53;;;15.10;99.90;;;;;;4997918;28;20038;-80
2022/06/10 01:21:21;;;;;;;11.55;5.95;;;15.10;99.90;;;;;;4999938;28;20026;-81
2022/06/10 01:24:24;;;;;;;10.60;5.57;;;15.20;99.90;;;;;;4971085;28;20043;-80
2022/06/10 01:30:15;;;;;;;10.63;5.80;;;15.20;99.90;;;;;;4952922;29;20047;-81
2022/06/10 01:33:02;;;;;;;11.25;6.47;;;15.20;99.90;;;;;;4960806;28;20031;-81
2022/06/10 01:35:34;;;;;;;7.57;5.55;;;15.30;99.90;;;;;;4963942;28;20394;-82
2022/06/10 01:38:16;;;;;;;8.13;5.53;;;15.30;99.90;;;;;;4962936;28;20051;-80
2022/06/10 01:41:02;;;;;;;14.52;6.03;;;15.30;99.90;;;;;;4943345;28;20027;-81
2022/06/10 01:43:52;;;;;;;14.93;6.20;;;15.30;99.90;;;;;;4939440;28;20054;-81
2022/06/10 01:46:28;;;;;;;10.95;5.70;;;15.40;99.90;;;;;;4957102;28;20086;-81
2022/06/10 01:49:19;;;;;;;11.25;6.13;;;15.30;99.90;;;;;;4959100;28;20099;-81
2022/06/10 01:52:04;;;;;;;10.05;6.50;;;15.30;99.90;;;;;;4946946;29;20043;-80
2022/06/10 01:54:52;;;;;;;13.00;5.63;;;15.30;99.90;;;;;;4950469;29;20479;-80
2022/06/10 01:57:49;;;;;;;10.50;6.18;;;15.30;99.90;;;;;;4988639;28;20042;-82
2022/06/10 02:00:23;;;;;;;14.23;6.63;;;15.40;99.90;;;;;;4965403;29;20031;-80
2022/06/10 02:03:08;;;;;;;9.43;5.70;;;15.40;99.90;;;;;;4970257;29;20047;-80
2022/06/10 02:05:43;;;;;;;;;;;15.30;99.90;;;;;;4959512;29;20052;-81
2022/06/10 02:08:14;;;;;;;9.10;6.00;;;15.30;99.90;;;;;;4959293;28;19914;-81
2022/06/10 02:10:54;;;;;;;10.88;6.82;;;15.40;99.90;;;;;;4954716;28;20034;-80
2022/06/10 02:13:23;;;;;;;10.13;6.38;;;15.40;99.90;;;;;;4940934;29;20055;-81
2022/06/10 02:15:53;;;;;;;11.20;7.00;;;15.40;99.90;;;;;;4951856;28;20099;-82
2022/06/10 02:18:37;;;;;;;12.05;6.57;;;15.40;99.90;;;;;;4946739;28;20032;-82
2022/06/10 02:21:21;;;;;;;12.98;6.65;;;15.40;99.90;;;;;;4954560;28;20058;-81
2022/06/10 02:23:53;;;;;;;11.52;6.82;;;15.40;99.90;;;;;;4942382;29;20031;-83
2022/06/10 02:26:20;;;;;;;7.72;5.97;;;15.40;99.90;;;;;;4963698;28;20036;-81
2022/06/10 02:28:51;;;;;;;12.90;7.47;;;15.40;99.90;;;;;;4962577;28;20065;-82
2022/06/10 02:31:32;;;;;;;9.27;6.10;;;15.40;99.90;;;;;;4968355;28;20038;-82
2022/06/10 02:34:00;;;;;;;9.57;6.40;;;15.40;99.90;;;;;;4966142;28;20031;-80
2022/06/10 02:36:52;;;;;;;8.35;5.78;;;15.40;99.90;;;;;;4974849;28;20415;-82
2022/06/10 02:39:44;;;;;;;10.88;6.40;;;15.40;99.90;;;;;;4962977;29;20086;-79
2022/06/10 02:42:10;;;;;;;10.45;6.68;;;15.40;99.90;;;;;;4962261;28;20023;-82
2022/06/10 02:44:42;;;;;;;12.23;6.13;;;15.40;99.90;;;;;;4961129;28;20135;-81
2022/06/10 02:47:16;;;;;;;10.45;6.00;;;15.50;99.90;;;;;;4959134;28;20123;-80
2022/06/10 02:49:42;;;;;;;;;;;15.50;99.90;;;;;;4989193;23;20069;-88
2022/06/10 02:52:12;;;;;;;9.07;6.55;;;15.50;99.90;;;;;;4977173;28;19910;-85
2022/06/10 02:54:40;;;;;;;9.90;6.80;;;15.50;99.90;;;;;;4977741;28;20042;-85
2022/06/10 03:03:37;;;;;;;13.13;6.43;;;15.50;99.90;;;;;;4974985;29;20058;-87
2022/06/10 03:06:15;;;;;;;8.10;5.68;;;15.50;99.90;;;;;;4966679;28;20031;-85
2022/06/10 03:08:47;;;;;;;8.88;6.30;;;15.50;99.90;;;;;;4956721;29;20063;-86
2022/06/10 03:11:44;;;;;;;9.65;6.20;;;15.50;99.90;;;;;;4969594;29;20043;-85
2022/06/10 03:14:28;;;;;;;9.45;6.68;;;15.50;99.90;;;;;;4972114;28;20083;-84
2022/06/10 03:17:23;;;;;;;10.15;6.35;;;15.60;99.90;;;;;;4961897;28;20028;-83
2022/06/10 03:20:24;;;;;;;9.35;5.85;;;15.60;99.90;;;;;;4977462;28;20043;-86
2022/06/10 03:23:05;;;;;;;10.77;6.47;;;15.60;99.90;;;;;;4972892;28;20383;-85
2022/06/10 03:25:41;;;;;;;6.95;5.53;;;15.60;99.90;;;;;;4974218;29;20042;-86
2022/06/10 03:28:44;;;;;;;13.38;6.25;;;15.60;99.90;;;;;;4967453;29;20019;-87
2022/06/10 03:31:21;;;;;;;13.55;6.10;;;15.60;99.90;;;;;;4973265;29;20039;-85
2022/06/10 03:33:54;;;;;;;9.52;6.10;;;15.60;99.90;;;;;;4974170;28;20081;-84
2022/06/10 03:36:23;;;;;;;10.18;5.90;;;15.60;99.90;;;;;;4970744;28;20042;-86
2022/06/10 03:38:51;;;;;;;9.43;5.57;;;15.60;99.90;;;;;;4967214;29;20034;-86
2022/06/10 03:41:38;;;;;;;14.13;6.45;;;15.70;99.90;;;;;;4965840;28;20027;-86
2022/06/10 03:44:12;;;;;;;11.43;6.05;;;15.70;99.90;;;;;;4968141;29;20467;-84
2022/06/10 03:46:39;;;;;;;;;;;15.70;99.90;;;;;;4972323;28;20031;-85
2022/06/10 03:49:12;;;;;;;10.15;6.43;;;15.70;99.90;;;;;;4976617;28;19903;-83
2022/06/10 03:51:39;;;;;;;10.70;5.78;;;15.70;99.90;;;;;;4978945;28;20039;-83
2022/06/10 03:54:05;;;;;;;9.45;6.57;;;15.70;99.90;;;;;;4961820;29;20023;-84
2022/06/10 03:56:31;;;;;;;11.63;6.80;;;15.80;99.90;;;;;;4978551;28;20024;-84
2022/06/10 03:58:58;;;;;;;13.52;7.28;;;15.80;99.90;;;;;;4978974;28;20057;-86
2022/06/10 04:01:24;;;;;;;11.32;7.32;;;15.70;99.90;;;;;;4977968;28;20031;-85
2022/06/10 04:03:50;;;;;;;13.30;6.78;;;15.70;99.90;;;;;;4961262;28;20029;-85
2022/06/10 04:06:17;;;;;;;12.15;7.28;;;15.80;99.90;;;;;;4971477;28;20079;-86
2022/06/10 04:08:43;;;;;;;11.48;6.65;;;15.80;99.90;;;;;;4971492;28;20035;-87
2022/06/10 04:11:09;;;;;;;13.93;7.00;;;15.70;99.90;;;;;;4969479;28;20126;-87
2022/06/10 04:13:35;;;;;;;12.52;6.95;;;15.80;99.90;;;;;;4969581;29;20019;-87
2022/06/10 04:16:01;;;;;;;12.20;7.00;;;15.70;99.90;;;;;;4974481;28;20087;-88
2022/06/10 04:18:27;;;;;;;13.32;6.85;;;15.70;99.90;;;;;;4974211;28;20047;-89
2022/06/10 04:20:53;;;;;;;10.18;7.03;;;15.70;99.90;;;;;;4976299;28;20050;-86
2022/06/10 04:23:19;;;;;;;11.93;7.45;;;15.80;99.90;;;;;;4981553;28;20047;-88
2022/06/10 04:25:46;;;;;;;10.27;6.40;;;15.80;99.90;;;;;;4985229;28;20027;-86
2022/06/10 04:28:13;;;;;;;12.50;7.78;;;15.80;99.90;;;;;;4984062;28;20020;-86
2022/06/10 04:30:43;;;;;;;11.13;6.97;;;15.80;99.90;;;;;;4981481;28;20043;-87
2022/06/10 04:33:10;;;;;;;11.48;6.63;;;15.80;99.90;;;;;;4983687;28;20114;-84
2022/06/10 04:35:38;;;;;;;10.82;6.75;;;15.80;99.90;;;;;;4986287;28;20049;-83
2022/06/10 04:38:05;;;;;;;15.35;6.80;;;15.80;99.90;;;;;;4981416;28;20051;-86
2022/06/10 04:40:33;;;;;;;11.88;7.22;;;15.70;99.90;;;;;;4979802;28;20062;-86
2022/06/10 04:43:00;;;;;;;14.43;6.78;;;15.80;99.90;;;;;;4974396;28;20119;-86
2022/06/10 04:45:33;;;;;;;8.70;6.57;;;15.80;99.90;;;;;;4986508;28;20023;-84
2022/06/10 04:48:00;;;;;;;11.63;7.00;;;15.80;99.90;;;;;;4981715;28;20188;-87
2022/06/10 04:50:28;;;;;;;15.23;7.30;;;15.80;99.90;;;;;;4955937;29;20031;-84
2022/06/10 04:52:55;;;;;;;12.35;7.30;;;15.80;99.90;;;;;;4974116;28;20012;-86
2022/06/10 04:55:23;;;;;;;10.75;7.00;;;15.80;99.90;;;;;;4974943;28;20032;-86
2022/06/10 04:57:49;;;;;;;12.57;8.50;;;15.70;99.90;;;;;;4977326;29;20092;-86
2022/06/10 05:00:23;;;;;;;14.63;8.02;;;15.60;99.90;;;;;;4978958;28;20031;-85
2022/06/10 05:02:49;;;;;;;18.02;9.90;;;15.50;99.90;;;;;;4980638;28;20043;-85
2022/06/10 05:05:15;;;;;;;13.45;8.95;;;15.50;99.90;;;;;;4977000;28;20138;-86
2022/06/10 05:07:41;;;;;;;13.15;8.93;;;15.40;99.90;;;;;;4980159;28;20091;-86
2022/06/10 05:10:07;;;;;;;12.38;8.32;;;15.30;99.90;;;;;;4979484;28;20067;-88
2022/06/10 05:12:34;;;;;;;12.18;9.00;;;15.20;99.90;;;;;;4976525;28;20046;-86
2022/06/10 05:15:00;;;;;;;17.15;9.77;;;15.10;99.90;;;;;;4962308;29;20024;-84
2022/06/10 05:17:26;;;;;;;13.55;8.95;;;15.10;99.90;;;;;;4977686;28;20038;-86
2022/06/10 05:19:51;;;;;;;13.20;9.35;;;15.00;99.90;;;;;;4972603;28;20043;-85
2022/06/10 05:22:17;;;;;;;14.93;9.23;;;15.00;99.90;;;;;;4975445;28;20031;-87
2022/06/10 05:24:43;;;;;;;13.65;7.25;;;15.00;99.90;;;;;;4972162;28;20042;-89
2022/06/10 05:27:09;;;;;;;14.80;8.38;;;14.90;99.90;;;;;;4970398;28;20095;-87
2022/06/10 05:29:36;;;;;;;13.15;8.55;;;14.90;99.90;;;;;;4969249;29;20027;-86
2022/06/10 05:32:02;;;;;;;14.88;8.70;;;14.90;99.90;;;;;;4961057;29;20027;-88
2022/06/10 05:34:47;;;;;;;13.18;9.40;;;14.90;99.90;;;;;;4953718;29;20087;-88
2022/06/10 05:37:24;;;;;;;15.07;8.98;;;14.90;99.90;;;;;;4964365;29;20076;-88
2022/06/10 05:39:52;;;;;;;14.68;8.13;;;14.90;99.90;;;;;;4969024;28;20031;-88
2022/06/10 05:42:18;;;;;;;13.55;9.00;;;15.00;99.90;;;;;;4967087;29;20027;-87
2022/06/10 05:44:50;;;;;;;15.63;8.52;;;15.00;99.90;;;;;;4952550;29;20027;-89
2022/06/10 05:47:19;;;;;;;13.82;8.25;;;15.00;99.90;;;;;;4963685;28;20027;-90
2022/06/10 05:49:48;;;;;;;11.20;8.20;;;15.00;99.90;;;;;;4975105;29;20039;-88
2022/06/10 05:54:50;;;;;;;10.43;7.30;;;15.00;99.90;;;;;;3305677;27;20036;-85
2022/06/10 05:57:17;;;;;;;12.68;7.30;;;15.00;99.90;;;;;;4943160;28;20051;-87
2022/06/10 05:59:44;;;;;;;11.93;7.13;;;15.00;99.90;;;;;;4943435;29;20028;-85
2022/06/10 06:02:11;;;;;;;11.10;7.40;;;15.10;99.90;;;;;;4942521;29;20028;-86
2022/06/10 06:04:37;;;;;;;11.60;6.78;;;15.10;99.90;;;;;;4942291;29;20005;-84
2022/06/10 06:07:04;;;;;;;10.77;7.95;;;15.10;99.90;;;;;;4936819;29;20027;-84
2022/06/10 06:09:30;;;;;;;10.25;7.10;;;15.10;99.90;;;;;;4931492;29;20024;-83
2022/06/10 06:11:57;;;;;;;9.70;7.10;;;15.10;99.90;;;;;;4931006;29;20101;-83
2022/06/10 06:14:25;;;;;;;11.13;7.50;;;15.10;99.90;;;;;;4951744;28;20016;-85
2022/06/10 06:16:57;;;;;;;11.23;7.20;;;15.20;99.90;;;;;;4945923;28;20119;-86
2022/06/10 06:19:25;;;;;;;11.77;7.20;;;15.20;99.90;;;;;;4948475;28;20036;-83
2022/06/10 06:21:51;;;;;;;14.07;7.35;;;15.20;99.90;;;;;;4931145;29;20080;-83
2022/06/10 06:24:17;;;;;;;9.02;6.55;;;15.20;99.90;;;;;;4935850;29;20039;-85
2022/06/10 06:26:43;;;;;;;8.90;6.75;;;15.30;99.90;;;;;;4935892;29;20021;-86
2022/06/10 06:29:09;;;;;;;11.10;6.45;;;15.30;99.90;;;;;;4932843;29;20078;-83
2022/06/10 06:31:35;;;;;;;12.93;6.35;;;15.40;99.90;;;;;;4937983;29;20020;-84
2022/06/10 06:34:01;;;;;;;8.43;5.60;;;15.40;99.90;;;;;;4921519;29;20024;-86
2022/06/10 06:36:28;;;;;;;8.07;5.90;;;15.40;99.90;;;;;;4922865;29;20036;-84
2022/06/10 06:38:54;;;;;;;8.48;6.18;;;15.40;99.90;;;;;;4901587;29;20051;-85
2022/06/10 06:41:21;;;;;;;8.90;6.10;;;15.40;99.90;;;;;;4926633;29;20044;-87
2022/06/10 06:43:47;;;;;;;11.57;6.00;;;15.40;99.90;;;;;;4910381;29;20038;-86
2022/06/10 06:46:15;;;;;;;7.80;5.25;;;15.40;99.90;;;;;;4908980;29;20044;-86
2022/06/10 06:48:42;;;;;;;5.88;4.60;;;15.50;99.90;;;;;;4925209;29;20047;-86
2022/06/10 06:51:08;;;;;;;7.40;5.10;;;15.50;99.90;;;;;;4912258;29;20080;-84
2022/06/10 06:53:35;;;;;;;6.55;5.00;;;15.50;99.90;;;;;;4895990;29;20040;-86
2022/06/10 06:56:03;;;;;;;6.53;4.75;;;15.50;99.90;;;;;;4909818;29;20093;-84
2022/06/10 06:58:29;;;;;;;5.32;4.20;;;15.50;99.90;;;;;;4914937;29;20044;-88
2022/06/10 07:00:55;;;;;;;6.07;4.72;;;15.50;99.90;;;;;;4922495;29;20128;-85
2022/06/10 07:03:21;;;;;;;8.05;4.07;;;15.50;99.90;;;;;;4907176;29;20111;-89
2022/06/10 07:05:48;;;;;;;5.75;4.10;;;15.50;99.90;;;;;;4925650;29;20040;-85
2022/06/10 07:08:13;;;;;;;5.03;3.97;;;15.50;99.90;;;;;;4931285;29;20024;-87
2022/06/10 07:10:40;;;;;;;5.75;3.95;;;15.50;99.90;;;;;;4902957;29;20077;-88
2022/06/10 07:13:06;;;;;;;8.98;4.03;;;15.60;99.90;;;;;;4911740;29;20096;-89
2022/06/10 07:15:32;;;;;;;7.30;3.85;;;15.60;99.90;;;;;;4919540;29;20024;-83
2022/06/10 07:18:00;;;;;;;5.05;3.35;;;15.60;99.90;;;;;;4904556;29;20069;-86
2022/06/10 07:20:32;;;;;;;6.75;3.83;;;15.60;99.90;;;;;;4899300;29;20040;-86
2022/06/10 07:22:59;;;;;;;4.97;3.10;;;15.70;99.90;;;;;;4921284;29;20091;-87
2022/06/10 07:25:25;;;;;;;6.43;3.53;;;15.70;99.90;;;;;;4927326;29;20056;-83
2022/06/10 07:27:55;;;;;;;4.30;3.45;;;15.60;99.90;;;;;;4922539;29;20033;-84
2022/06/10 07:30:25;;;;;;;6.00;3.95;;;15.70;99.90;;;;;;4922661;29;20074;-83
2022/06/10 07:32:52;;;;;;;5.25;2.90;;;15.70;99.90;;;;;;4933078;29;20017;-84
2022/06/10 07:35:20;;;;;;;5.38;3.80;;;15.70;99.90;;;;;;4929848;29;20035;-87
2022/06/10 07:37:47;;;;;;;8.02;3.70;;;15.70;99.90;;;;;;4909948;29;20033;-86
2022/06/10 07:43:18;;;;;;;5.30;4.25;;;15.80;99.90;;;;;;4919575;29;20044;-86
2022/06/10 07:45:44;;;;;;;7.10;4.35;;;15.80;99.90;;;;;;4915480;29;20084;-88
2022/06/10 07:48:12;;;;;;;5.95;4.50;;;15.70;99.90;;;;;;4912155;29;20032;-87
2022/06/10 07:50:42;;;;;;;8.05;4.55;;;15.70;99.90;;;;;;4920747;29;20040;-86
2022/06/10 07:53:10;;;;;;;5.65;4.50;;;15.70;99.90;;;;;;4904256;29;20051;-88
2022/06/10 07:55:36;;;;;;;8.10;4.88;;;15.70;99.90;;;;;;4919664;29;20032;-87
2022/06/10 07:58:03;;;;;;;7.20;4.80;;;15.70;99.90;;;;;;4914250;29;20103;-86
2022/06/10 08:00:29;;;;;;;8.15;4.97;;;15.70;99.90;;;;;;4923492;29;20055;-87
2022/06/10 08:02:57;;;;;;;5.90;5.20;;;15.70;99.90;;;;;;4909127;29;20035;-86
2022/06/10 08:05:24;;;;;;;10.45;5.53;;;15.70;99.90;;;;;;4902928;29;20079;-86
2022/06/10 08:07:50;;;;;;;9.52;5.82;;;15.70;99.90;;;;;;4902112;29;20052;-87
2022/06/10 08:10:21;;;;;;;7.43;5.60;;;15.60;99.90;;;;;;4919092;29;20036;-87
2022/06/10 08:12:47;;;;;;;10.43;5.85;;;15.60;99.90;;;;;;4913560;29;20076;-87
2022/06/10 08:15:18;;;;;;;10.75;6.05;;;15.60;99.90;;;;;;4919380;29;20031;-87
2022/06/10 08:17:43;;;;;;;7.85;5.38;;;15.60;99.90;;;;;;4920846;29;20064;-87
2022/06/10 08:20:17;;;;;;;8.63;5.43;;;15.60;99.90;;;;;;4893631;29;20040;-85
2022/06/10 08:22:43;;;;;;;8.80;5.80;;;15.50;99.90;;;;;;4904317;29;20040;-85
2022/06/10 08:25:12;;;;;;;7.60;6.43;;;15.60;99.90;;;;;;4920606;29;20471;-86
2022/06/10 08:27:38;;;;;;;9.77;5.35;;;15.60;99.90;;;;;;4906481;29;20039;-87
2022/06/10 08:30:07;;;;;;;9.10;5.20;;;15.60;99.90;;;;;;4926493;29;20060;-88
2022/06/10 08:32:32;;;;;;;5.57;4.65;;;15.60;99.90;;;;;;4902149;29;20032;-86
2022/06/10 08:34:59;;;;;;;6.97;5.30;;;15.60;99.90;;;;;;4898614;29;20044;-85
2022/06/10 08:37:25;;;;;;;7.82;5.40;;;15.70;99.90;;;;;;4935290;29;20040;-87
2022/06/10 08:39:51;;;;;;;7.15;5.15;;;15.70;99.90;;;;;;4903385;29;20053;-88
2022/06/10 08:42:41;;;;;;;7.05;5.40;;;15.70;99.90;;;;;;4915657;29;20046;-83
2022/06/10 08:45:30;;;;;;;8.13;5.35;;;15.80;99.90;;;;;;4916373;29;20037;-86
2022/06/10 08:48:08;;;;;;;6.93;5.78;;;15.80;99.90;;;;;;4923957;29;20050;-85
2022/06/10 08:50:59;;;;;;;7.10;5.15;;;15.80;99.90;;;;;;4980380;23;20046;-85
2022/06/10 08:53:48;;;;;;;7.20;4.38;;;15.80;99.90;;;;;;4945468;29;20107;-87
2022/06/10 08:56:49;;;;;;;5.43;4.28;;;15.90;99.90;;;;;;4953377;29;20131;-84
2022/06/10 08:59:27;;;;;;;7.25;4.93;;;15.90;99.90;;;;;;4922340;29;20529;-86
2022/06/10 09:02:05;;;;;;;7.13;5.25;;;16.00;99.90;;;;;;4937542;29;20047;-85
2022/06/10 09:04:43;;;;;;;7.40;4.90;;;16.10;99.90;;;;;;4933049;29;20047;-85
2022/06/10 09:07:19;;;;;;;8.05;5.15;;;16.20;99.90;;;;;;4935313;29;20035;-86
2022/06/10 09:09:45;;;;;;;7.38;5.00;;;16.20;99.90;;;;;;4948719;29;20035;-84
2022/06/10 09:12:36;;;;;;;8.48;4.75;;;16.30;99.90;;;;;;4948967;29;20040;-84
2022/06/10 09:15:03;;;;;;;6.35;4.90;;;16.40;99.90;;;;;;4967771;28;20045;-84
2022/06/10 09:17:49;;;;;;;6.53;4.90;;;16.40;99.90;;;;;;4946915;29;20036;-84
2022/06/10 09:20:34;;;;;;;10.40;5.25;;;16.50;99.90;;;;;;4936158;29;20036;-83
2022/06/10 09:23:41;;;;;;;7.43;5.28;;;16.50;99.90;;;;;;4950748;29;20016;-84
2022/06/10 09:26:12;;;;;;;7.40;5.03;;;16.60;99.90;;;;;;4935438;29;20084;-84
2022/06/10 09:28:39;;;;;;;7.50;5.95;;;16.70;99.90;;;;;;4948771;29;20047;-84
2022/06/10 09:31:16;;;;;;;7.82;5.72;;;16.70;99.90;;;;;;4951116;29;20027;-84
2022/06/10 09:34:04;;;;;;;9.20;6.15;;;16.70;99.90;;;;;;4946095;29;20036;-85
2022/06/10 09:36:57;;;;;;;8.95;6.18;;;16.80;99.90;;;;;;4977953;28;20030;-84
2022/06/10 09:42:48;;;;;;;9.70;5.63;;;16.90;99.90;;;;;;4932301;29;20055;-86
2022/06/10 09:45:26;;;;;;;10.35;6.00;;;16.90;99.90;;;;;;4951581;28;20031;-85
2022/06/10 09:48:23;;;;;;;10.02;6.43;;;16.90;99.90;;;;;;4940131;29;20020;-84
2022/06/10 09:51:02;;;;;;;8.93;6.38;;;16.90;99.90;;;;;;4937219;29;20035;-85
2022/06/10 09:53:55;;;;;;;11.27;6.30;;;16.90;99.90;;;;;;4932408;29;20512;-84
2022/06/10 09:56:49;;;;;;;7.88;6.28;;;16.90;99.90;;;;;;4930709;29;20032;-88
2022/06/10 09:59:14;;;;;;;7.57;6.10;;;16.90;99.90;;;;;;4936505;29;20055;-85
2022/06/10 10:02:08;;;;;;;9.85;6.22;;;16.90;99.90;;;;;;4962974;28;20043;-89
2022/06/10 10:04:43;;;;;;;8.90;6.13;;;17.00;99.90;;;;;;4938717;29;20024;-87
2022/06/10 10:07:28;;;;;;;7.65;6.43;;;17.00;99.90;;;;;;4945771;29;20055;-87
2022/06/10 10:10:08;;;;;;;12.30;7.72;;;16.90;99.90;;;;;;4942212;29;20020;-88
2022/06/10 10:13:04;;;;;;;8.88;6.22;;;17.00;99.90;;;;;;4955790;29;20044;-86
2022/06/10 10:15:39;;;;;;;9.15;6.32;;;17.00;99.90;;;;;;4971307;28;20038;-87
2022/06/10 10:18:41;;;;;;;11.52;6.65;;;17.00;99.90;;;;;;4972141;28;20043;-87
2022/06/10 10:21:42;;;;;;;8.88;6.50;;;17.10;99.90;;;;;;4940027;29;20052;-91
2022/06/10 10:24:17;;;;;;;10.38;6.50;;;17.10;99.90;;;;;;4920019;29;20099;-88
2022/06/10 10:26:44;;;;;;;9.13;6.43;;;17.20;99.90;;;;;;4927459;29;20058;-89
2022/06/10 10:29:21;;;;;;;8.45;6.75;;;17.20;99.90;;;;;;4965337;28;20546;-87
2022/06/10 10:32:04;;;;;;;15.15;6.97;;;17.20;99.90;;;;;;4932341;29;20223;-88
2022/06/10 10:34:36;;;;;;;9.88;6.88;;;17.20;99.90;;;;;;4924930;29;20503;-86
2022/06/10 10:37:10;;;;;;;10.15;7.43;;;17.20;99.90;;;;;;4957161;28;20035;-88
2022/06/10 10:39:38;;;;;;;9.30;7.80;;;17.10;99.90;;;;;;4947419;29;20067;-87
2022/06/10 10:42:19;;;;;;;9.27;6.90;;;17.10;99.90;;;;;;4939285;29;20794;-87
2022/06/10 10:44:54;;;;;;;10.45;7.95;;;17.10;99.90;;;;;;4933734;29;20046;-87
2022/06/10 10:47:26;;;;;;;13.52;7.50;;;17.10;99.90;;;;;;4940468;29;20087;-87
2022/06/10 10:50:04;;;;;;;12.98;8.23;;;17.20;99.90;;;;;;4937367;29;20042;-86
2022/06/10 10:56:13;;;;;;;10.82;7.40;;;17.20;99.90;;;;;;4950005;29;20038;-87
2022/06/10 14:32:48;;;;;;;7.75;4.20;;;24.10;99.90;;;;;;4944245;29;20071;-85
2022/06/10 14:35:34;;;;;;;5.80;3.88;;;24.40;99.90;;;;;;4954842;29;20042;-86
2022/06/10 14:38:21;;;;;;;6.95;4.13;;;24.90;99.90;;;;;;4946952;29;20036;-86
2022/06/10 14:40:59;;;;;;;9.10;4.30;;;24.70;99.90;;;;;;4943159;29;20052;-85
2022/06/10 14:43:36;;;;;;;10.75;3.90;;;24.10;99.90;;;;;;4940823;29;20047;-87
2022/06/10 14:46:22;;;;;;;9.50;4.80;;;23.70;99.90;;;;;;4936712;29;20111;-86
2022/06/10 14:48:50;;;;;;;5.47;4.10;;;23.00;99.90;;;;;;4932654;29;20103;-86
2022/06/10 14:51:34;;;;;;;10.15;4.18;;;23.00;99.90;;;;;;4997684;23;20034;-88
2022/06/10 14:54:26;;;;;;;4.80;3.87;;;23.30;99.90;;;;;;4999307;28;20015;-85
2022/06/10 14:56:52;;;;;;;9.27;4.53;;;23.60;99.90;;;;;;4973792;28;20055;-88
2022/06/10 14:59:28;;;;;;;11.50;4.60;;;23.20;99.90;;;;;;4973230;29;20027;-88
2022/06/10 15:01:57;;;;;;;6.40;4.40;;;23.10;99.90;;;;;;4975383;28;20054;-88
2022/06/10 15:04:23;;;;;;;9.50;4.57;;;23.00;99.90;;;;;;4971986;29;20082;-88
2022/06/10 15:06:59;;;;;;;11.55;4.35;;;23.10;99.90;;;;;;4970890;29;20034;-89
2022/06/10 15:09:31;;;;;;;7.55;4.50;;;23.00;99.90;;;;;;4970793;29;20042;-91
2022/06/10 15:12:11;;;;;;;7.57;4.05;;;22.90;99.90;;;;;;4963046;28;20130;-89
2022/06/10 15:14:37;;;;;;;9.15;4.10;;;23.20;99.90;;;;;;4972737;28;20030;-88
2022/06/10 15:17:04;;;;;;;5.05;4.00;;;23.20;99.90;;;;;;4960789;28;20027;-88
2022/06/10 15:19:29;;;;;;;8.07;3.75;;;23.60;99.90;;;;;;4971165;28;20078;-88
2022/06/10 15:21:55;;;;;;;5.80;3.83;;;24.70;99.90;;;;;;4956152;29;20023;-88
2022/06/10 15:24:24;;;;;;;7.45;4.28;;;24.90;99.90;;;;;;4958276;29;20076;-88
2022/06/10 15:26:52;;;;;;;8.38;4.43;;;24.10;99.90;;;;;;4958654;29;20051;-87
2022/06/10 15:29:22;;;;;;;7.40;4.10;;;23.30;99.90;;;;;;4974337;28;20056;-87
2022/06/10 15:31:51;;;;;;;7.47;4.10;;;22.70;99.90;;;;;;4978460;28;20082;-85
2022/06/10 15:34:18;;;;;;;7.55;4.65;;;22.30;99.90;;;;;;4956718;28;20023;-88
2022/06/10 15:42:24;;;;;;;9.07;4.40;;;21.30;99.90;;;;;;4987052;28;20044;-90
2022/06/10 15:44:51;;;;;;;6.72;4.07;;;21.30;99.90;;;;;;4955565;29;20012;-90
2022/06/10 15:47:19;;;;;;;10.13;5.15;;;21.30;99.90;;;;;;4955470;29;20032;-87
2022/06/10 15:49:46;;;;;;;9.70;4.82;;;21.20;99.90;;;;;;4956225;29;20030;-90
2022/06/10 15:52:27;;;;;;;6.57;4.25;;;21.00;99.90;;;;;;4953689;29;20047;-90
2022/06/10 15:57:45;;;;;;;8.80;5.45;;;20.70;99.90;;;;;;4985710;28;20066;-89
2022/06/10 16:00:25;;;;;;;8.27;6.07;;;20.60;99.90;;;;;;4952999;29;20036;-89
2022/06/10 16:02:52;;;;;;;7.25;5.63;;;20.50;99.90;;;;;;4950914;29;20032;-90
2022/06/10 16:05:21;;;;;;;7.25;5.40;;;20.40;99.90;;;;;;4935733;29;20112;-88
2022/06/10 16:07:48;;;;;;;9.90;5.50;;;20.40;99.90;;;;;;4953309;29;20028;-90
2022/06/10 16:10:15;;;;;;;11.45;5.22;;;20.30;99.90;;;;;;4955853;29;20088;-87
2022/06/10 16:13:00;;;;;;;11.48;5.63;;;20.20;99.90;;;;;;4958313;29;20087;-88
2022/06/10 16:15:51;;;;;;;10.40;6.15;;;20.10;99.90;;;;;;4958583;29;20088;-86
2022/06/10 16:18:28;;;;;;;12.30;5.85;;;20.10;99.90;;;;;;4953431;29;20298;-87
2022/06/10 16:20:59;;;;;;;12.70;5.88;;;20.10;99.90;;;;;;4957756;29;20041;-84
2022/06/10 16:23:28;;;;;;;13.52;5.32;;;20.10;99.90;;;;;;4958160;29;20043;-85
2022/06/10 16:26:02;;;;;;;11.43;5.90;;;20.10;99.90;;;;;;4958176;29;20112;-88
2022/06/10 16:28:36;;;;;;;10.75;5.75;;;20.00;99.90;;;;;;4955730;29;20024;-88
2022/06/10 16:31:02;;;;;;;6.77;5.07;;;20.10;99.90;;;;;;5010065;28;20039;-88
2022/06/10 16:33:28;;;;;;;9.25;5.35;;;20.10;99.90;;;;;;5008051;28;20020;-84
2022/06/10 16:35:55;;;;;;;9.30;5.30;;;20.10;99.90;;;;;;4976987;28;20039;-84
2022/06/10 16:38:31;;;;;;;8.98;4.88;;;20.00;99.90;;;;;;5087647;23;20035;-87
2022/06/10 16:41:02;;;;;;;8.00;5.03;;;20.10;99.90;;;;;;4943147;29;20050;-87
2022/06/10 16:43:49;;;;;;;7.00;5.78;;;20.20;99.90;;;;;;4943023;29;20039;-85
2022/06/10 16:46:22;;;;;;;7.32;5.45;;;20.20;99.90;;;;;;4958049;29;20020;-86
2022/06/10 16:48:48;;;;;;;9.02;5.40;;;20.20;99.90;;;;;;4942494;29;20091;-88
2022/06/10 16:51:15;;;;;;;9.95;5.22;;;20.20;99.90;;;;;;4951011;29;20028;-90
2022/06/10 16:53:45;;;;;;;7.70;5.53;;;20.20;99.90;;;;;;4934960;29;20123;-89
2022/06/10 16:56:15;;;;;;;10.25;5.78;;;20.20;99.90;;;;;;4933803;29;20091;-89
2022/06/10 16:58:46;;;;;;;9.57;5.22;;;20.30;99.90;;;;;;4934277;29;20044;-91
2022/06/10 17:01:16;;;;;;;9.13;5.40;;;20.30;99.90;;;;;;4948199;29;20023;-89
2022/06/10 17:03:42;;;;;;;7.82;4.82;;;20.30;99.90;;;;;;4949663;29;20100;-88
2022/06/10 17:06:11;;;;;;;9.52;5.40;;;20.30;99.90;;;;;;4934859;29;20031;-89
2022/06/10 17:08:37;;;;;;;7.03;4.38;;;20.30;99.90;;;;;;4933661;29;20075;-88
2022/06/10 17:11:05;;;;;;;8.45;4.93;;;20.20;99.90;;;;;;4938796;29;20036;-90
2022/06/10 17:13:37;;;;;;;21.30;5.38;;;20.20;99.90;;;;;;4956774;29;20603;-87
2022/06/10 17:16:12;;;;;;;10.10;4.97;;;20.20;99.90;;;;;;4956842;29;20040;-86